sensor_id;sensor_type;location;lat;lon;timestamp;pressure;altitude;pressure_sealevel;temperature;humidity
23339;BME280;11841;49.368;20.962;2023-05-02T00:00:24;95889.06;;;4.45;70.18
23339;BME280;11841;49.368;20.962;2023-05-02T00:03:09;95890.53;;;4.48;70.27
23339;BME280;11841;49.368;20.962;2023-05-02T00:05:56;95888.03;;;4.46;70.20
23339;BME280;11841;49.368;20.962;2023-05-02T00:08:41;95894.31;;;4.45;70.54
23339;BME280;11841;49.368;20.962;2023-05-02T00:11:26;95884.81;;;4.44;71.02
23339;BME280;11841;49.368;20.962;2023-05-02T00:14:12;95882.47;;;4.49;70.68
23339;BME280;11841;49.368;20.962;2023-05-02T00:16:57;95884.44;;;4.47;70.53
23339;BME280;11841;49.368;20.962;2023-05-02T00:19:42;95886.44;;;4.45;71.24
23339;BME280;11841;49.368;20.962;2023-05-02T00:22:27;95892.50;;;4.46;71.21
23339;BME280;11841;49.368;20.962;2023-05-02T00:25:13;95894.66;;;4.42;71.12
23339;BME280;11841;49.368;20.962;2023-05-02T00:28:00;95886.13;;;4.40;71.08
23339;BME280;11841;49.368;20.962;2023-05-02T00:30:46;95897.34;;;4.34;70.99
23339;BME280;11841;49.368;20.962;2023-05-02T00:33:31;95891.44;;;4.32;71.38
23339;BME280;11841;49.368;20.962;2023-05-02T00:36:18;95900.66;;;4.28;71.31
23339;BME280;11841;49.368;20.962;2023-05-02T00:39:03;95898.38;;;4.25;71.92
23339;BME280;11841;49.368;20.962;2023-05-02T00:41:55;95900.34;;;4.23;72.37
23339;BME280;11841;49.368;20.962;2023-05-02T00:44:40;95897.25;;;4.20;71.76
23339;BME280;11841;49.368;20.962;2023-05-02T00:47:25;95906.91;;;4.19;72.15
23339;BME280;11841;49.368;20.962;2023-05-02T00:50:11;95915.16;;;4.16;72.35
23339;BME280;11841;49.368;20.962;2023-05-02T00:52:59;95905.00;;;4.13;72.39
23339;BME280;11841;49.368;20.962;2023-05-02T00:55:44;95906.00;;;4.12;72.44
23339;BME280;11841;49.368;20.962;2023-05-02T00:58:30;95902.25;;;4.07;72.55
23339;BME280;11841;49.368;20.962;2023-05-02T01:01:47;95906.03;;;4.04;72.78
23339;BME280;11841;49.368;20.962;2023-05-02T01:04:59;95898.50;;;4.01;73.28
23339;BME280;11841;49.368;20.962;2023-05-02T01:11:10;95913.91;;;4.04;73.06
23339;BME280;11841;49.368;20.962;2023-05-02T01:14:00;95911.44;;;4.03;72.64
23339;BME280;11841;49.368;20.962;2023-05-02T01:16:49;95907.38;;;4.00;73.02
23339;BME280;11841;49.368;20.962;2023-05-02T01:19:38;95912.63;;;4.00;72.90
23339;BME280;11841;49.368;20.962;2023-05-02T01:22:29;95910.31;;;3.97;72.85
23339;BME280;11841;49.368;20.962;2023-05-02T01:31:10;95906.91;;;3.97;73.35
23339;BME280;11841;49.368;20.962;2023-05-02T01:33:57;95912.31;;;3.95;73.60
23339;BME280;11841;49.368;20.962;2023-05-02T01:36:44;95903.97;;;3.92;73.73
23339;BME280;11841;49.368;20.962;2023-05-02T01:39:32;95911.19;;;3.90;74.19
23339;BME280;11841;49.368;20.962;2023-05-02T01:42:19;95918.56;;;3.86;74.46
23339;BME280;11841;49.368;20.962;2023-05-02T01:45:07;95908.25;;;3.85;74.30
23339;BME280;11841;49.368;20.962;2023-05-02T01:47:53;95908.59;;;3.82;74.27
23339;BME280;11841;49.368;20.962;2023-05-02T01:50:40;95911.06;;;3.83;74.29
23339;BME280;11841;49.368;20.962;2023-05-02T01:53:29;95911.06;;;3.83;74.29
23339;BME280;11841;49.368;20.962;2023-05-02T01:56:18;95910.06;;;3.84;74.58
23339;BME280;11841;49.368;20.962;2023-05-02T01:59:05;95912.69;;;3.84;75.15
23339;BME280;11841;49.368;20.962;2023-05-02T02:01:52;95909.41;;;3.82;74.96
23339;BME280;11841;49.368;20.962;2023-05-02T02:04:40;95916.31;;;3.83;74.83
23339;BME280;11841;49.368;20.962;2023-05-02T02:07:26;95910.22;;;3.83;74.96
23339;BME280;11841;49.368;20.962;2023-05-02T02:10:12;95918.94;;;3.83;75.63
23339;BME280;11841;49.368;20.962;2023-05-02T02:13:05;95916.78;;;3.87;75.59
23339;BME280;11841;49.368;20.962;2023-05-02T02:15:52;95917.25;;;3.90;75.36
23339;BME280;11841;49.368;20.962;2023-05-02T02:18:43;95916.78;;;3.87;75.42
23339;BME280;11841;49.368;20.962;2023-05-02T02:21:29;95912.50;;;3.86;75.61
23339;BME280;11841;49.368;20.962;2023-05-02T02:24:17;95907.44;;;3.84;75.94
23339;BME280;11841;49.368;20.962;2023-05-02T02:27:05;95911.06;;;3.83;76.13
23339;BME280;11841;49.368;20.962;2023-05-02T02:29:50;95908.25;;;3.85;75.75
23339;BME280;11841;49.368;20.962;2023-05-02T02:32:35;95916.97;;;3.85;75.74
23339;BME280;11841;49.368;20.962;2023-05-02T02:35:21;95916.47;;;3.82;76.35
23339;BME280;11841;49.368;20.962;2023-05-02T02:38:22;95914.66;;;3.82;76.75
23339;BME280;11841;49.368;20.962;2023-05-02T02:41:14;95917.09;;;3.84;76.14
23339;BME280;11841;49.368;20.962;2023-05-02T02:44:39;95911.41;;;3.80;76.24
23339;BME280;11841;49.368;20.962;2023-05-02T02:47:31;95916.97;;;3.77;76.10
23339;BME280;11841;49.368;20.962;2023-05-02T02:50:25;95909.28;;;3.76;76.39
23339;BME280;11841;49.368;20.962;2023-05-02T02:53:19;95917.66;;;3.71;76.56
23339;BME280;11841;49.368;20.962;2023-05-02T02:56:14;95912.41;;;3.71;76.62
23339;BME280;11841;49.368;20.962;2023-05-02T02:59:15;95912.75;;;3.68;76.71
23339;BME280;11841;49.368;20.962;2023-05-02T03:02:12;95912.09;;;3.66;76.77
23339;BME280;11841;49.368;20.962;2023-05-02T03:05:00;95918.31;;;3.65;76.91
23339;BME280;11841;49.368;20.962;2023-05-02T03:07:46;95932.78;;;3.61;76.72
23339;BME280;11841;49.368;20.962;2023-05-02T03:10:31;95938.19;;;3.59;76.85
23339;BME280;11841;49.368;20.962;2023-05-02T03:13:17;95939.63;;;3.62;77.08
23339;BME280;11841;49.368;20.962;2023-05-02T03:19:15;95929.97;;;3.62;77.41
23339;BME280;11841;49.368;20.962;2023-05-02T03:22:00;95932.09;;;3.67;77.66
23339;BME280;11841;49.368;20.962;2023-05-02T03:24:45;95930.47;;;3.66;78.30
23339;BME280;11841;49.368;20.962;2023-05-02T03:27:31;95925.22;;;3.66;77.79
23339;BME280;11841;49.368;20.962;2023-05-02T03:30:16;95935.69;;;3.66;77.91
23339;BME280;11841;49.368;20.962;2023-05-02T03:33:01;95933.72;;;3.68;78.47
23339;BME280;11841;49.368;20.962;2023-05-02T03:35:48;95936.97;;;3.70;77.97
23339;BME280;11841;49.368;20.962;2023-05-02T03:38:34;95945.19;;;3.67;78.42
23339;BME280;11841;49.368;20.962;2023-05-02T03:41:19;95946.19;;;3.66;78.75
23339;BME280;11841;49.368;20.962;2023-05-02T03:44:04;95952.72;;;3.70;78.90
23339;BME280;11841;49.368;20.962;2023-05-02T03:46:49;95957.00;;;3.71;78.81
23339;BME280;11841;49.368;20.962;2023-05-02T03:49:35;95954.69;;;3.76;79.18
23339;BME280;11841;49.368;20.962;2023-05-02T03:52:21;95956.97;;;3.79;78.89
23339;BME280;11841;49.368;20.962;2023-05-02T03:55:06;95960.22;;;3.81;79.33
23339;BME280;11841;49.368;20.962;2023-05-02T03:57:51;95957.25;;;3.84;80.15
23339;BME280;11841;49.368;20.962;2023-05-02T04:00:37;95962.81;;;3.89;80.17
23339;BME280;11841;49.368;20.962;2023-05-02T04:03:22;95966.75;;;3.93;80.18
23339;BME280;11841;49.368;20.962;2023-05-02T04:06:08;95962.78;;;3.97;80.12
23339;BME280;11841;49.368;20.962;2023-05-02T04:08:53;95959.66;;;4.02;80.49
23339;BME280;11841;49.368;20.962;2023-05-02T04:11:38;95968.34;;;4.02;80.40
23339;BME280;11841;49.368;20.962;2023-05-02T04:14:24;95971.59;;;4.04;80.91
23339;BME280;11841;49.368;20.962;2023-05-02T04:17:09;95971.28;;;4.07;80.86
23339;BME280;11841;49.368;20.962;2023-05-02T04:19:54;95977.81;;;4.11;81.10
23339;BME280;11841;49.368;20.962;2023-05-02T04:22:40;95973.53;;;4.18;81.06
23339;BME280;11841;49.368;20.962;2023-05-02T04:25:26;95974.84;;;4.22;81.09
23339;BME280;11841;49.368;20.962;2023-05-02T04:28:11;95975.31;;;4.26;81.33
23339;BME280;11841;49.368;20.962;2023-05-02T04:30:57;95964.63;;;4.27;81.35
23339;BME280;11841;49.368;20.962;2023-05-02T04:33:42;95966.75;;;4.32;81.36
23339;BME280;11841;49.368;20.962;2023-05-02T04:36:27;95964.59;;;4.35;81.10
23339;BME280;11841;49.368;20.962;2023-05-02T04:39:13;95967.88;;;4.37;81.11
23339;BME280;11841;49.368;20.962;2023-05-02T04:41:58;95967.16;;;4.43;81.30
23339;BME280;11841;49.368;20.962;2023-05-02T04:44:43;95968.47;;;4.47;82.22
23339;BME280;11841;49.368;20.962;2023-05-02T04:47:29;95970.56;;;4.52;81.75
23339;BME280;11841;49.368;20.962;2023-05-02T04:50:14;95973.66;;;4.55;82.34
23339;BME280;11841;49.368;20.962;2023-05-02T04:52:59;95970.00;;;4.64;82.68
23339;BME280;11841;49.368;20.962;2023-05-02T04:55:45;95977.00;;;4.72;83.13
23339;BME280;11841;49.368;20.962;2023-05-02T04:58:30;95980.38;;;4.80;83.86
23339;BME280;11841;49.368;20.962;2023-05-02T05:01:16;95975.72;;;4.90;83.17
23339;BME280;11841;49.368;20.962;2023-05-02T05:04:02;95973.03;;;4.99;83.28
23339;BME280;11841;49.368;20.962;2023-05-02T05:06:47;95971.97;;;5.08;83.13
23339;BME280;11841;49.368;20.962;2023-05-02T05:09:33;95975.16;;;5.18;82.80
23339;BME280;11841;49.368;20.962;2023-05-02T05:12:19;95970.66;;;5.26;82.84
23339;BME280;11841;49.368;20.962;2023-05-02T05:15:04;95961.91;;;5.34;84.23
23339;BME280;11841;49.368;20.962;2023-05-02T05:17:50;95969.19;;;5.46;82.81
23339;BME280;11841;49.368;20.962;2023-05-02T05:20:35;95969.09;;;5.54;82.97
23339;BME280;11841;49.368;20.962;2023-05-02T05:23:21;95963.56;;;5.64;82.80
23339;BME280;11841;49.368;20.962;2023-05-02T05:26:14;95961.16;;;5.77;84.05
23339;BME280;11841;49.368;20.962;2023-05-02T05:28:59;95961.34;;;5.90;83.30
23339;BME280;11841;49.368;20.962;2023-05-02T05:31:44;95958.88;;;6.03;83.34
23339;BME280;11841;49.368;20.962;2023-05-02T05:34:30;95964.31;;;6.16;82.55
23339;BME280;11841;49.368;20.962;2023-05-02T05:37:15;95959.78;;;6.25;82.73
23339;BME280;11841;49.368;20.962;2023-05-02T05:40:00;95960.94;;;6.37;82.12
23339;BME280;11841;49.368;20.962;2023-05-02T05:42:46;95959.91;;;6.52;82.20
23339;BME280;11841;49.368;20.962;2023-05-02T05:45:31;95964.50;;;6.65;82.19
23339;BME280;11841;49.368;20.962;2023-05-02T05:48:17;95956.56;;;6.79;81.87
23339;BME280;11841;49.368;20.962;2023-05-02T05:51:05;95966.09;;;7.01;82.12
23339;BME280;11841;49.368;20.962;2023-05-02T05:53:51;95963.22;;;7.17;81.69
23339;BME280;11841;49.368;20.962;2023-05-02T05:56:36;95962.06;;;7.26;81.80
23339;BME280;11841;49.368;20.962;2023-05-02T05:59:22;95956.09;;;7.39;81.90
23339;BME280;11841;49.368;20.962;2023-05-02T06:02:07;95960.16;;;7.69;81.30
23339;BME280;11841;49.368;20.962;2023-05-02T06:04:52;95972.91;;;7.93;79.79
23339;BME280;11841;49.368;20.962;2023-05-02T06:07:38;95962.81;;;8.03;78.88
23339;BME280;11841;49.368;20.962;2023-05-02T06:10:23;95960.84;;;8.12;78.58
23339;BME280;11841;49.368;20.962;2023-05-02T06:13:08;95959.44;;;8.16;79.25
23339;BME280;11841;49.368;20.962;2023-05-02T06:15:54;95963.84;;;8.36;78.93
23339;BME280;11841;49.368;20.962;2023-05-02T06:18:40;95959.66;;;8.62;78.42
23339;BME280;11841;49.368;20.962;2023-05-02T06:21:25;95959.09;;;8.79;77.97
23339;BME280;11841;49.368;20.962;2023-05-02T06:24:11;95965.66;;;8.96;77.29
23339;BME280;11841;49.368;20.962;2023-05-02T06:26:57;95952.06;;;9.12;75.67
23339;BME280;11841;49.368;20.962;2023-05-02T06:29:42;95950.25;;;9.32;74.88
23339;BME280;11841;49.368;20.962;2023-05-02T06:32:31;95955.16;;;9.48;74.29
23339;BME280;11841;49.368;20.962;2023-05-02T06:35:16;95956.75;;;9.69;74.38
23339;BME280;11841;49.368;20.962;2023-05-02T06:38:02;95952.84;;;9.91;73.19
23339;BME280;11841;49.368;20.962;2023-05-02T06:40:47;95948.16;;;10.13;72.91
23339;BME280;11841;49.368;20.962;2023-05-02T06:43:33;95951.78;;;10.25;72.48
23339;BME280;11841;49.368;20.962;2023-05-02T06:46:18;95952.75;;;10.43;71.47
23339;BME280;11841;49.368;20.962;2023-05-02T06:49:05;95950.53;;;10.78;69.01
23339;BME280;11841;49.368;20.962;2023-05-02T06:51:50;95946.09;;;11.03;67.99
23339;BME280;11841;49.368;20.962;2023-05-02T06:54:35;95959.53;;;11.15;66.94
23339;BME280;11841;49.368;20.962;2023-05-02T06:57:21;95953.09;;;11.29;66.81
23339;BME280;11841;49.368;20.962;2023-05-02T07:00:06;95952.25;;;11.59;66.31
23339;BME280;11841;49.368;20.962;2023-05-02T07:02:52;95947.59;;;11.79;67.05
23339;BME280;11841;49.368;20.962;2023-05-02T07:05:37;95956.94;;;11.88;68.18
23339;BME280;11841;49.368;20.962;2023-05-02T07:08:23;95953.81;;;12.16;69.94
23339;BME280;11841;49.368;20.962;2023-05-02T07:11:08;95952.56;;;12.37;70.25
23339;BME280;11841;49.368;20.962;2023-05-02T07:13:54;95944.38;;;12.86;68.47
23339;BME280;11841;49.368;20.962;2023-05-02T07:16:39;95936.50;;;13.09;67.91
23339;BME280;11841;49.368;20.962;2023-05-02T07:19:24;95941.34;;;13.42;67.05
23339;BME280;11841;49.368;20.962;2023-05-02T07:22:10;95947.41;;;13.72;66.60
23339;BME280;11841;49.368;20.962;2023-05-02T07:25:00;95948.72;;;13.92;66.34
23339;BME280;11841;49.368;20.962;2023-05-02T07:27:45;95940.50;;;14.28;64.28
23339;BME280;11841;49.368;20.962;2023-05-02T07:30:31;95947.31;;;14.36;64.44
23339;BME280;11841;49.368;20.962;2023-05-02T07:33:16;95943.03;;;14.46;63.74
23339;BME280;11841;49.368;20.962;2023-05-02T07:36:01;95942.31;;;14.63;63.71
23339;BME280;11841;49.368;20.962;2023-05-02T07:38:47;95947.84;;;14.73;63.15
23339;BME280;11841;49.368;20.962;2023-05-02T07:41:33;95939.50;;;14.97;63.13
23339;BME280;11841;49.368;20.962;2023-05-02T07:44:18;95939.34;;;15.04;62.51
23339;BME280;11841;49.368;20.962;2023-05-02T07:47:03;95941.84;;;15.22;61.80
23339;BME280;11841;49.368;20.962;2023-05-02T07:49:55;95949.19;;;15.43;60.95
23339;BME280;11841;49.368;20.962;2023-05-02T07:52:40;95948.78;;;15.51;61.37
23339;BME280;11841;49.368;20.962;2023-05-02T07:55:26;95947.34;;;15.60;61.06
23339;BME280;11841;49.368;20.962;2023-05-02T07:58:12;95942.00;;;15.77;60.53
23339;BME280;11841;49.368;20.962;2023-05-02T08:00:57;95938.28;;;15.94;60.42
23339;BME280;11841;49.368;20.962;2023-05-02T08:03:43;95941.94;;;16.05;59.63
23339;BME280;11841;49.368;20.962;2023-05-02T08:06:29;95941.31;;;16.19;59.58
23339;BME280;11841;49.368;20.962;2023-05-02T08:09:15;95939.28;;;16.26;60.03
23339;BME280;11841;49.368;20.962;2023-05-02T08:12:00;95938.56;;;16.47;59.45
23339;BME280;11841;49.368;20.962;2023-05-02T08:14:47;95943.41;;;16.50;58.70
23339;BME280;11841;49.368;20.962;2023-05-02T08:17:32;95950.50;;;16.61;58.49
23339;BME280;11841;49.368;20.962;2023-05-02T08:20:18;95957.06;;;16.70;58.46
23339;BME280;11841;49.368;20.962;2023-05-02T08:23:03;95966.28;;;16.79;57.83
23339;BME280;11841;49.368;20.962;2023-05-02T08:25:49;95947.78;;;16.78;57.23
23339;BME280;11841;49.368;20.962;2023-05-02T08:28:34;95946.84;;;16.89;56.55
23339;BME280;11841;49.368;20.962;2023-05-02T08:31:20;95950.44;;;17.00;54.98
23339;BME280;11841;49.368;20.962;2023-05-02T08:34:06;95952.69;;;17.08;55.21
23339;BME280;11841;49.368;20.962;2023-05-02T08:36:51;95954.59;;;17.12;55.67
23339;BME280;11841;49.368;20.962;2023-05-02T08:39:37;95935.41;;;17.20;55.83
23339;BME280;11841;49.368;20.962;2023-05-02T08:42:22;95931.66;;;17.21;56.08
23339;BME280;11841;49.368;20.962;2023-05-02T08:45:11;95930.47;;;17.34;56.80
23339;BME280;11841;49.368;20.962;2023-05-02T08:48:00;95938.75;;;17.59;54.58
23339;BME280;11841;49.368;20.962;2023-05-02T08:50:46;95935.56;;;17.62;55.46
23339;BME280;11841;49.368;20.962;2023-05-02T08:53:34;95941.78;;;17.67;55.48
23339;BME280;11841;49.368;20.962;2023-05-02T08:56:20;95920.63;;;17.71;54.83
23339;BME280;11841;49.368;20.962;2023-05-02T08:59:05;95936.22;;;17.74;54.16
23339;BME280;11841;49.368;20.962;2023-05-02T09:01:54;95945.94;;;17.80;54.09
23339;BME280;11841;49.368;20.962;2023-05-02T09:04:44;95940.66;;;17.90;53.22
23339;BME280;11841;49.368;20.962;2023-05-02T09:07:43;95947.41;;;17.97;52.96
23339;BME280;11841;49.368;20.962;2023-05-02T09:10:29;95947.69;;;18.01;52.75
23339;BME280;11841;49.368;20.962;2023-05-02T09:13:31;95943.44;;;18.05;53.32
23339;BME280;11841;49.368;20.962;2023-05-02T09:16:22;95948.88;;;18.15;52.45
23339;BME280;11841;49.368;20.962;2023-05-02T09:19:08;95951.03;;;18.18;52.02
23339;BME280;11841;49.368;20.962;2023-05-02T09:22:01;95948.66;;;18.22;51.63
23339;BME280;11841;49.368;20.962;2023-05-02T09:24:53;95950.06;;;18.29;51.72
23339;BME280;11841;49.368;20.962;2023-05-02T09:27:55;95955.41;;;18.29;51.36
23339;BME280;11841;49.368;20.962;2023-05-02T09:30:42;95954.06;;;18.32;51.87
23339;BME280;11841;49.368;20.962;2023-05-02T09:33:27;95948.94;;;18.25;51.28
23339;BME280;11841;49.368;20.962;2023-05-02T09:36:15;95964.53;;;18.28;51.72
23339;BME280;11841;49.368;20.962;2023-05-02T09:39:08;95964.00;;;18.31;51.56
23339;BME280;11841;49.368;20.962;2023-05-02T09:41:56;95958.66;;;18.36;51.77
23339;BME280;11841;49.368;20.962;2023-05-02T09:44:42;95956.06;;;18.46;52.06
23339;BME280;11841;49.368;20.962;2023-05-02T09:47:27;95956.41;;;18.60;50.37
23339;BME280;11841;49.368;20.962;2023-05-02T09:50:35;95950.84;;;18.66;51.00
23339;BME280;11841;49.368;20.962;2023-05-02T09:53:25;95948.16;;;18.66;50.10
23339;BME280;11841;49.368;20.962;2023-05-02T09:56:11;95938.00;;;18.78;50.86
23339;BME280;11841;49.368;20.962;2023-05-02T09:59:13;95931.59;;;18.89;50.42
23339;BME280;11841;49.368;20.962;2023-05-02T10:02:04;95947.75;;;18.99;50.07
23339;BME280;11841;49.368;20.962;2023-05-02T10:04:52;95941.84;;;19.07;50.31
23339;BME280;11841;49.368;20.962;2023-05-02T10:07:38;95945.34;;;19.08;49.32
23339;BME280;11841;49.368;20.962;2023-05-02T10:10:24;95944.81;;;19.06;48.97
23339;BME280;11841;49.368;20.962;2023-05-02T10:13:12;95935.16;;;19.10;48.82
23339;BME280;11841;49.368;20.962;2023-05-02T10:16:02;95928.72;;;19.16;49.27
23339;BME280;11841;49.368;20.962;2023-05-02T10:19:09;95938.41;;;19.22;48.96
23339;BME280;11841;49.368;20.962;2023-05-02T10:21:58;95923.06;;;19.17;47.40
23339;BME280;11841;49.368;20.962;2023-05-02T10:24:43;95929.03;;;19.30;48.09
23339;BME280;11841;49.368;20.962;2023-05-02T10:27:29;95928.00;;;19.36;47.96
23339;BME280;11841;49.368;20.962;2023-05-02T10:30:16;95941.97;;;19.33;47.24
23339;BME280;11841;49.368;20.962;2023-05-02T10:33:02;95939.22;;;19.22;47.65
23339;BME280;11841;49.368;20.962;2023-05-02T10:35:47;95948.59;;;19.15;48.07
23339;BME280;11841;49.368;20.962;2023-05-02T10:38:33;95943.75;;;19.12;48.15
23339;BME280;11841;49.368;20.962;2023-05-02T10:41:24;95945.63;;;19.06;48.02
23339;BME280;11841;49.368;20.962;2023-05-02T10:44:10;95940.25;;;19.06;48.50
23339;BME280;11841;49.368;20.962;2023-05-02T10:46:56;95939.44;;;19.11;48.95
23339;BME280;11841;49.368;20.962;2023-05-02T10:49:56;95952.13;;;19.20;48.34
23339;BME280;11841;49.368;20.962;2023-05-02T10:52:41;95949.50;;;19.31;48.21
23339;BME280;11841;49.368;20.962;2023-05-02T10:55:27;95952.47;;;19.39;48.63
23339;BME280;11841;49.368;20.962;2023-05-02T11:04:14;95960.56;;;19.49;48.20
23339;BME280;11841;49.368;20.962;2023-05-02T11:09:45;95950.63;;;19.60;47.38
23339;BME280;11841;49.368;20.962;2023-05-02T11:12:50;95955.47;;;19.63;46.66
23339;BME280;11841;49.368;20.962;2023-05-02T11:18:24;95947.94;;;19.55;46.78
23339;BME280;11841;49.368;20.962;2023-05-02T11:21:25;95957.63;;;19.71;47.08
23339;BME280;11841;49.368;20.962;2023-05-02T11:24:38;95958.16;;;19.68;45.64
23339;BME280;11841;49.368;20.962;2023-05-02T11:30:35;95963.56;;;19.88;46.53
23339;BME280;11841;49.368;20.962;2023-05-02T11:33:21;95971.34;;;19.69;46.13
23339;BME280;11841;49.368;20.962;2023-05-02T11:36:07;95971.59;;;19.53;46.35
23339;BME280;11841;49.368;20.962;2023-05-02T11:38:52;95971.31;;;19.49;47.60
23339;BME280;11841;49.368;20.962;2023-05-02T11:41:41;95970.50;;;19.49;47.51
23339;BME280;11841;49.368;20.962;2023-05-02T11:44:27;95978.00;;;19.47;47.56
23339;BME280;11841;49.368;20.962;2023-05-02T11:47:12;95975.59;;;19.50;47.77
23339;BME280;11841;49.368;20.962;2023-05-02T11:49:57;95982.88;;;19.50;47.96
23339;BME280;11841;49.368;20.962;2023-05-02T11:52:46;95980.44;;;19.48;47.79
23339;BME280;11841;49.368;20.962;2023-05-02T11:55:31;95983.41;;;19.62;48.26
23339;BME280;11841;49.368;20.962;2023-05-02T11:58:23;95985.56;;;19.50;47.42
23339;BME280;11841;49.368;20.962;2023-05-02T12:01:12;95987.47;;;19.54;47.43
23339;BME280;11841;49.368;20.962;2023-05-02T12:04:06;95976.97;;;19.58;47.70
23339;BME280;11841;49.368;20.962;2023-05-02T12:06:56;95973.75;;;19.71;48.05
23339;BME280;11841;49.368;20.962;2023-05-02T12:09:51;95971.63;;;19.83;47.28
23339;BME280;11841;49.368;20.962;2023-05-02T12:12:38;95973.00;;;19.90;47.55
23339;BME280;11841;49.368;20.962;2023-05-02T12:15:24;95982.94;;;20.00;47.63
23339;BME280;11841;49.368;20.962;2023-05-02T12:18:09;95974.03;;;20.04;47.93
23339;BME280;11841;49.368;20.962;2023-05-02T12:20:55;95977.00;;;20.13;46.91
23339;BME280;11841;49.368;20.962;2023-05-02T12:23:40;95985.91;;;20.03;47.12
23339;BME280;11841;49.368;20.962;2023-05-02T12:26:27;95985.09;;;20.08;47.29
23339;BME280;11841;49.368;20.962;2023-05-02T12:29:17;95981.34;;;20.09;47.70
23339;BME280;11841;49.368;20.962;2023-05-02T12:32:02;95985.66;;;20.20;47.62
23339;BME280;11841;49.368;20.962;2023-05-02T12:34:47;95971.63;;;20.13;47.78
23339;BME280;11841;49.368;20.962;2023-05-02T12:37:33;95975.72;;;20.15;47.62
23339;BME280;11841;49.368;20.962;2023-05-02T12:40:19;95974.88;;;20.05;47.95
23339;BME280;11841;49.368;20.962;2023-05-02T12:43:05;95975.41;;;20.02;48.46
23339;BME280;11841;49.368;20.962;2023-05-02T12:46:09;95969.22;;;19.86;47.03
23339;BME280;11841;49.368;20.962;2023-05-02T12:49:08;95966.78;;;19.65;47.45
23339;BME280;11841;49.368;20.962;2023-05-02T12:51:54;95969.97;;;19.57;48.16
23339;BME280;11841;49.368;20.962;2023-05-02T12:54:40;95972.66;;;19.67;48.45
23339;BME280;11841;49.368;20.962;2023-05-02T12:57:26;95971.59;;;19.53;46.88
23339;BME280;11841;49.368;20.962;2023-05-02T13:00:11;95968.25;;;19.20;48.04
23339;BME280;11841;49.368;20.962;2023-05-02T13:02:57;95960.38;;;19.09;48.23
23339;BME280;11841;49.368;20.962;2023-05-02T13:05:43;95951.03;;;19.16;48.44
23339;BME280;11841;49.368;20.962;2023-05-02T13:08:28;95957.97;;;19.07;48.80
23339;BME280;11841;49.368;20.962;2023-05-02T13:11:14;95955.25;;;18.97;48.93
23339;BME280;11841;49.368;20.962;2023-05-02T13:13:59;95952.00;;;18.90;49.66
23339;BME280;11841;49.368;20.962;2023-05-02T13:16:48;95950.94;;;18.91;49.75
23339;BME280;11841;49.368;20.962;2023-05-02T13:19:34;95951.25;;;19.00;50.04
23339;BME280;11841;49.368;20.962;2023-05-02T13:22:19;95946.16;;;19.03;49.07
23339;BME280;11841;49.368;20.962;2023-05-02T13:25:05;95933.50;;;19.09;48.99
23339;BME280;11841;49.368;20.962;2023-05-02T13:27:51;95926.56;;;19.13;49.02
23339;BME280;11841;49.368;20.962;2023-05-02T13:30:36;95929.25;;;19.18;49.74
23339;BME280;11841;49.368;20.962;2023-05-02T13:33:21;95923.34;;;19.26;49.48
23339;BME280;11841;49.368;20.962;2023-05-02T13:36:07;95923.34;;;19.26;48.17
23339;BME280;11841;49.368;20.962;2023-05-02T13:38:52;95918.25;;;19.24;49.07
23339;BME280;11841;49.368;20.962;2023-05-02T13:41:37;95922.03;;;19.28;47.65
23339;BME280;11841;49.368;20.962;2023-05-02T13:44:23;95923.94;;;19.33;47.10
23339;BME280;11841;49.368;20.962;2023-05-02T13:47:08;95929.06;;;19.35;47.03
23339;BME280;11841;49.368;20.962;2023-05-02T13:49:53;95928.53;;;19.33;47.50
23339;BME280;11841;49.368;20.962;2023-05-02T13:52:39;95924.22;;;19.37;47.17
23339;BME280;11841;49.368;20.962;2023-05-02T13:55:25;95932.56;;;19.40;47.00
23339;BME280;11841;49.368;20.962;2023-05-02T13:58:11;95917.25;;;19.46;47.39
23339;BME280;11841;49.368;20.962;2023-05-02T14:00:56;95929.63;;;19.47;46.00
23339;BME280;11841;49.368;20.962;2023-05-02T14:03:41;95927.47;;;19.49;46.32
23339;BME280;11841;49.368;20.962;2023-05-02T14:06:27;95925.88;;;19.48;45.79
23339;BME280;11841;49.368;20.962;2023-05-02T14:09:13;95922.91;;;19.49;46.11
23339;BME280;11841;49.368;20.962;2023-05-02T14:11:59;95922.91;;;19.49;46.25
23339;BME280;11841;49.368;20.962;2023-05-02T14:14:45;95920.75;;;19.51;46.47
23339;BME280;11841;49.368;20.962;2023-05-02T14:29:40;95921.59;;;20.02;45.28
23339;BME280;11841;49.368;20.962;2023-05-02T14:32:27;95917.81;;;19.88;44.75
23339;BME280;11841;49.368;20.962;2023-05-02T14:35:12;95916.72;;;19.79;44.87
23339;BME280;11841;49.368;20.962;2023-05-02T14:37:58;95921.31;;;19.73;44.52
23339;BME280;11841;49.368;20.962;2023-05-02T14:40:44;95918.91;;;19.72;45.01
23339;BME280;11841;49.368;20.962;2023-05-02T14:43:29;95910.81;;;19.62;44.78
23339;BME280;11841;49.368;20.962;2023-05-02T14:46:14;95914.56;;;19.51;44.63
23339;BME280;11841;49.368;20.962;2023-05-02T14:48:59;95916.16;;;19.52;45.06
23339;BME280;11841;49.368;20.962;2023-05-02T14:51:45;95908.91;;;19.47;45.08
23339;BME280;11841;49.368;20.962;2023-05-02T14:54:32;95915.66;;;19.50;45.50
23339;BME280;11841;49.368;20.962;2023-05-02T14:57:17;95915.66;;;19.50;45.31
23339;BME280;11841;49.368;20.962;2023-05-02T15:00:04;95915.66;;;19.50;45.04
23339;BME280;11841;49.368;20.962;2023-05-02T15:02:52;95913.47;;;19.47;44.96
23339;BME280;11841;49.368;20.962;2023-05-02T15:05:38;95913.47;;;19.42;44.76
23339;BME280;11841;49.368;20.962;2023-05-02T15:08:23;95917.25;;;19.36;45.12
23339;BME280;11841;49.368;20.962;2023-05-02T15:11:10;95922.06;;;19.34;44.87
23339;BME280;11841;49.368;20.962;2023-05-02T15:13:55;95922.59;;;19.31;45.45
23339;BME280;11841;49.368;20.962;2023-05-02T15:16:43;95921.53;;;19.32;45.58
23339;BME280;11841;49.368;20.962;2023-05-02T15:30:38;95919.97;;;19.61;45.57